Time;durP1;ratioP1;P1;durP2;ratioP2;P2;SDS_P1;SDS_P2;PMS_P1;PMS_P2;Temp;Humidity;BMP_temperature;BMP_pressure;BME280_temperature;BME280_humidity;BME280_pressure;Samples;Min_cycle;Max_cycle;Signal;HPM_P1;HPM_P2
2024/01/15 00:00:49;;;;;;;79.50;52.80;;;;;;;2.08;100.00;98743.91;5051026;28;20132;-80
2024/01/15 00:03:14;;;;;;;79.80;52.15;;;;;;;2.10;100.00;98736.81;5042357;28;20389;-80
2024/01/15 00:05:40;;;;;;;79.60;52.75;;;;;;;2.13;100.00;98723.56;5044509;28;20021;-80
2024/01/15 00:08:05;;;;;;;80.63;53.75;;;;;;;2.15;100.00;98716.50;5042857;28;20490;-79
2024/01/15 00:10:31;;;;;;;77.85;51.47;;;;;;;2.18;100.00;98716.28;5045988;28;20029;-78
2024/01/15 00:12:57;;;;;;;82.13;52.28;;;;;;;2.19;100.00;98710.13;5042491;28;20112;-79
2024/01/15 00:15:25;;;;;;;75.75;50.70;;;;;;;2.22;100.00;98704.72;5042981;28;20040;-80
2024/01/15 00:17:51;;;;;;;85.82;54.53;;;;;;;2.23;100.00;98702.00;5040903;28;20033;-79
2024/01/15 00:20:16;;;;;;;83.60;53.63;;;;;;;2.26;100.00;98706.13;5039578;28;20492;-79
2024/01/15 00:22:42;;;;;;;82.88;52.25;;;;;;;2.26;100.00;98696.56;5044692;28;20025;-80
2024/01/15 00:25:08;;;;;;;78.40;51.45;;;;;;;2.30;100.00;98687.56;5044832;28;20048;-81
2024/01/15 00:27:33;;;;;;;72.68;49.28;;;;;;;2.33;100.00;98691.75;5040659;28;20033;-79
2024/01/15 00:29:59;;;;;;;74.65;49.70;;;;;;;2.34;100.00;98694.25;5041733;28;20029;-78
2024/01/15 00:32:24;;;;;;;77.70;51.05;;;;;;;2.32;100.00;98679.66;5042692;28;20033;-79
2024/01/15 00:34:50;;;;;;;75.18;49.97;;;;;;;2.15;100.00;98677.47;5042969;28;20036;-77
2024/01/15 00:37:16;;;;;;;79.28;49.70;;;;;;;2.23;100.00;98669.94;5050645;28;20083;-78
2024/01/15 00:39:42;;;;;;;73.57;47.90;;;;;;;2.25;100.00;98675.84;5049027;28;20044;-79
2024/01/15 00:42:08;;;;;;;82.97;51.78;;;;;;;2.27;100.00;98681.78;5047591;28;20361;-80
2024/01/15 00:44:33;;;;;;;76.57;50.05;;;;;;;2.27;100.00;98679.16;5049820;28;20036;-79
2024/01/15 00:46:59;;;;;;;75.50;50.78;;;;;;;2.25;100.00;98671.47;5047325;28;20040;-80
2024/01/15 00:49:24;;;;;;;75.60;49.78;;;;;;;2.26;100.00;98664.50;5050640;28;20112;-81
2024/01/15 00:51:50;;;;;;;73.15;49.03;;;;;;;2.24;100.00;98655.97;5046248;28;20085;-80
2024/01/15 00:54:15;;;;;;;79.72;50.38;;;;;;;1.98;100.00;98648.28;5048437;28;20036;-80
2024/01/15 00:56:41;;;;;;;78.20;49.60;;;;;;;2.05;100.00;98652.13;5050355;28;20112;-79
2024/01/15 00:59:07;;;;;;;76.60;49.22;;;;;;;1.91;100.00;98643.63;5050246;28;20037;-80
2024/01/15 01:01:33;;;;;;;77.00;51.25;;;;;;;1.99;100.00;98636.13;5047191;28;20103;-80
2024/01/15 01:03:58;;;;;;;75.18;49.75;;;;;;;2.01;100.00;98635.03;5048579;28;20501;-79
2024/01/15 01:06:24;;;;;;;76.75;49.75;;;;;;;2.09;100.00;98636.25;5047693;28;20072;-78
2024/01/15 01:08:50;;;;;;;74.70;50.22;;;;;;;1.98;100.00;98635.28;5047247;28;20033;-80
2024/01/15 01:11:16;;;;;;;77.65;51.70;;;;;;;1.76;100.00;98634.34;5048918;28;20086;-80
2024/01/15 01:13:43;;;;;;;80.30;50.88;;;;;;;1.71;100.00;98637.25;5045424;28;20033;-79
2024/01/15 01:16:08;;;;;;;77.72;52.15;;;;;;;1.77;100.00;98636.81;5048333;28;20434;-78
2024/01/15 01:18:34;;;;;;;76.63;50.85;;;;;;;1.90;100.00;98637.59;5047686;28;20162;-79
2024/01/15 01:21:00;;;;;;;78.15;50.03;;;;;;;1.91;100.00;98634.06;5046986;28;20033;-80
2024/01/15 01:23:26;;;;;;;76.07;50.40;;;;;;;1.83;100.00;98636.38;5050510;28;20116;-79
2024/01/15 01:25:51;;;;;;;77.22;51.30;;;;;;;1.75;100.00;98630.91;5047625;28;20035;-80
2024/01/15 01:28:17;;;;;;;78.18;50.95;;;;;;;1.72;100.00;98633.72;5049916;28;20048;-79
2024/01/15 01:30:43;;;;;;;78.65;51.55;;;;;;;1.73;100.00;98630.19;5048362;28;20024;-79
2024/01/15 01:33:08;;;;;;;77.35;49.70;;;;;;;1.85;100.00;98628.47;5048239;28;20025;-78
2024/01/15 01:35:34;;;;;;;79.93;51.50;;;;;;;1.72;100.00;98618.13;5045410;28;20034;-77
2024/01/15 01:37:59;;;;;;;76.97;48.88;;;;;;;1.85;100.00;98624.09;5049089;28;20049;-79
2024/01/15 01:40:25;;;;;;;77.82;50.97;;;;;;;1.93;100.00;98631.34;5046582;28;20090;-80
2024/01/15 01:42:50;;;;;;;77.00;48.83;;;;;;;1.96;100.00;98621.53;5052683;28;20036;-79
2024/01/15 01:45:16;;;;;;;76.85;50.05;;;;;;;1.96;100.00;98625.91;5045589;28;20045;-79
2024/01/15 01:47:41;;;;;;;79.07;50.50;;;;;;;1.96;100.00;98637.16;5031121;28;20029;-79
2024/01/15 01:50:07;;;;;;;79.63;52.38;;;;;;;1.94;100.00;98636.47;5046815;28;20042;-80
2024/01/15 01:52:34;;;;;;;83.78;52.08;;;;;;;1.95;100.00;98630.28;5067348;28;20532;-79
2024/01/15 01:55:03;;;;;;;80.00;52.05;;;;;;;1.97;100.00;98623.22;5042182;28;20033;-79
2024/01/15 01:57:31;;;;;;;81.63;53.63;;;;;;;1.98;100.00;98630.06;5046290;28;20385;-79
2024/01/15 01:59:58;;;;;;;80.28;51.30;;;;;;;2.01;100.00;98619.44;5044147;28;20466;-80
2024/01/15 02:02:24;;;;;;;77.85;52.20;;;;;;;1.96;100.00;98626.75;5051506;28;20037;-78
2024/01/15 02:04:50;;;;;;;82.32;53.40;;;;;;;2.02;100.00;98621.09;5046879;28;20091;-78
2024/01/15 02:07:17;;;;;;;80.93;53.03;;;;;;;2.05;100.00;98609.66;5048056;28;20465;-80
2024/01/15 02:09:44;;;;;;;85.45;54.30;;;;;;;2.08;100.00;98603.38;5048989;28;20045;-80
2024/01/15 02:12:10;;;;;;;85.85;54.15;;;;;;;2.08;100.00;98603.38;5052184;28;20036;-79
2024/01/15 02:14:36;;;;;;;82.65;53.05;;;;;;;2.08;100.00;98608.56;5051060;28;20067;-79
2024/01/15 02:17:02;;;;;;;84.63;53.25;;;;;;;2.05;100.00;98594.88;5049463;28;20115;-77
2024/01/15 02:19:27;;;;;;;81.18;52.95;;;;;;;2.05;100.00;98618.28;5047413;28;20029;-79
2024/01/15 02:21:53;;;;;;;83.35;54.42;;;;;;;1.99;100.00;98636.94;5046089;28;20028;-79
2024/01/15 02:24:19;;;;;;;82.60;54.60;;;;;;;1.92;100.00;98635.72;5049545;28;20029;-78
2024/01/15 02:26:45;;;;;;;87.07;56.38;;;;;;;1.81;100.00;98633.06;5046234;28;20436;-78
2024/01/15 02:29:12;;;;;;;87.70;57.15;;;;;;;1.64;100.00;98626.47;5047331;28;20047;-80
2024/01/15 02:31:39;;;;;;;89.38;57.30;;;;;;;1.60;100.00;98624.19;5049713;28;20064;-80
2024/01/15 02:34:04;;;;;;;91.57;56.67;;;;;;;1.51;100.00;98604.88;5043942;28;20041;-79
2024/01/15 02:36:30;;;;;;;90.28;59.45;;;;;;;1.49;100.00;98595.53;5049310;28;20040;-79
2024/01/15 02:38:56;;;;;;;89.63;58.67;;;;;;;1.60;100.00;98579.97;5050310;28;20026;-79
2024/01/15 02:41:21;;;;;;;87.25;57.15;;;;;;;1.70;100.00;98562.81;5045816;28;20033;-79
2024/01/15 02:43:47;;;;;;;89.65;58.22;;;;;;;1.75;100.00;98555.47;5052041;28;20041;-79
2024/01/15 02:46:13;;;;;;;91.72;57.13;;;;;;;1.84;100.00;98549.59;5049437;28;20037;-78
2024/01/15 02:48:38;;;;;;;87.43;56.38;;;;;;;1.90;100.00;98549.16;5048412;28;20036;-79
2024/01/15 02:51:04;;;;;;;87.25;54.67;;;;;;;1.94;100.00;98566.22;5046830;28;20021;-78
2024/01/15 02:53:30;;;;;;;86.95;56.72;;;;;;;2.01;100.00;98572.59;5045139;28;20036;-80
2024/01/15 02:55:55;;;;;;;83.47;56.35;;;;;;;2.05;100.00;98579.25;5046396;28;20029;-80
2024/01/15 02:58:21;;;;;;;86.18;54.75;;;;;;;1.95;100.00;98575.66;5043640;28;20025;-79
2024/01/15 03:00:47;;;;;;;88.53;57.05;;;;;;;1.90;100.00;98566.53;5044891;28;20055;-79
2024/01/15 03:03:13;;;;;;;86.03;55.33;;;;;;;1.89;100.00;98559.66;5046439;28;20045;-78
2024/01/15 03:05:38;;;;;;;86.80;55.55;;;;;;;1.91;100.00;98566.41;5046479;28;20043;-81
2024/01/15 03:08:04;;;;;;;83.80;54.03;;;;;;;1.98;100.00;98569.41;5043682;28;20112;-79
2024/01/15 03:10:29;;;;;;;87.43;56.75;;;;;;;1.96;100.00;98564.31;5047362;28;20029;-80
2024/01/15 03:12:55;;;;;;;91.95;58.13;;;;;;;1.85;100.00;98551.25;5043332;28;20423;-79
2024/01/15 03:15:20;;;;;;;87.93;57.50;;;;;;;1.80;100.00;98536.94;5046243;28;20068;-79
2024/01/15 03:17:46;;;;;;;91.60;56.58;;;;;;;1.83;100.00;98532.31;5038713;28;20060;-80
2024/01/15 03:20:12;;;;;;;87.78;56.65;;;;;;;1.89;100.00;98526.66;5043665;28;20036;-79
2024/01/15 03:22:37;;;;;;;87.63;56.35;;;;;;;1.86;100.00;98521.72;5044986;28;20166;-78
2024/01/15 03:25:04;;;;;;;84.90;53.75;;;;;;;1.83;100.00;98511.50;5042257;28;20105;-79
2024/01/15 03:27:30;;;;;;;84.75;54.60;;;;;;;1.82;100.00;98517.69;5043151;28;20029;-79
2024/01/15 03:29:55;;;;;;;83.22;54.75;;;;;;;1.81;100.00;98508.22;5045731;28;20040;-78
2024/01/15 03:32:21;;;;;;;83.68;54.15;;;;;;;1.86;100.00;98506.09;5042381;28;20106;-78
2024/01/15 03:34:47;;;;;;;79.72;53.22;;;;;;;1.91;100.00;98509.19;5044277;28;20044;-78
2024/01/15 03:37:13;;;;;;;82.65;53.25;;;;;;;1.95;100.00;98515.81;5042659;28;20465;-78
2024/01/15 03:39:40;;;;;;;82.45;54.50;;;;;;;1.95;100.00;98521.00;5045198;28;20024;-79
2024/01/15 03:42:06;;;;;;;81.30;53.80;;;;;;;1.99;100.00;98501.66;5042377;28;20037;-78
2024/01/15 03:44:31;;;;;;;80.28;53.60;;;;;;;2.05;100.00;98490.78;5046449;28;20127;-78
2024/01/15 03:46:58;;;;;;;81.60;53.03;;;;;;;2.09;100.00;98474.94;5039011;28;20112;-79
2024/01/15 03:49:23;;;;;;;83.95;52.13;;;;;;;2.14;100.00;98462.38;5042827;28;20668;-79
2024/01/15 03:51:49;;;;;;;85.75;55.00;;;;;;;2.12;100.00;98480.72;5040735;28;20111;-79
2024/01/15 03:54:14;;;;;;;84.25;54.17;;;;;;;2.09;100.00;98480.97;5042944;28;20500;-79
2024/01/15 03:56:40;;;;;;;85.93;53.63;;;;;;;2.08;100.00;98478.47;5048104;28;20044;-79
2024/01/15 03:59:06;;;;;;;80.55;52.88;;;;;;;2.08;100.00;98468.88;5045679;28;20064;-79
2024/01/15 04:01:31;;;;;;;78.13;51.63;;;;;;;2.12;100.00;98470.31;5043420;28;20514;-79
2024/01/15 04:03:57;;;;;;;85.95;53.97;;;;;;;2.12;100.00;98474.72;5048596;28;20112;-78
2024/01/15 04:06:22;;;;;;;82.20;53.53;;;;;;;2.12;100.00;98469.50;5044936;28;20163;-80
2024/01/15 04:08:48;;;;;;;78.18;52.35;;;;;;;2.11;100.00;98462.63;5044060;28;20443;-80
2024/01/15 04:11:13;;;;;;;81.93;53.85;;;;;;;2.13;100.00;98455.53;5042326;28;20086;-80
2024/01/15 04:13:39;;;;;;;86.20;53.88;;;;;;;2.06;100.00;98445.56;5044422;28;20025;-80
2024/01/15 04:16:05;;;;;;;84.60;55.35;;;;;;;1.99;100.00;98444.41;5043003;28;20033;-80
2024/01/15 04:18:30;;;;;;;88.15;55.08;;;;;;;1.96;100.00;98436.81;5046107;28;20078;-81
2024/01/15 04:20:56;;;;;;;85.47;53.58;;;;;;;1.96;100.00;98434.22;5043697;28;20029;-79
2024/01/15 04:23:21;;;;;;;85.00;55.42;;;;;;;1.98;100.00;98427.13;5048938;28;20033;-81
2024/01/15 04:25:48;;;;;;;86.35;54.90;;;;;;;2.04;100.00;98418.88;5040886;28;20029;-82
2024/01/15 04:28:14;;;;;;;93.07;58.92;;;;;;;2.08;100.00;98414.25;5045984;28;20029;-79
2024/01/15 04:30:39;;;;;;;88.65;55.25;;;;;;;2.13;100.00;98427.72;5043228;28;20032;-78
2024/01/15 04:33:05;;;;;;;85.95;55.90;;;;;;;2.11;100.00;98441.81;5045138;28;20037;-79
2024/01/15 04:35:31;;;;;;;85.22;56.15;;;;;;;2.12;100.00;98446.09;5044320;28;20034;-79
2024/01/15 04:37:56;;;;;;;87.55;55.40;;;;;;;2.12;100.00;98449.50;5047887;28;20084;-80
2024/01/15 04:40:22;;;;;;;86.25;55.97;;;;;;;2.17;100.00;98456.97;5044174;28;20032;-79
2024/01/15 04:42:48;;;;;;;84.65;55.53;;;;;;;2.17;100.00;98449.16;5047522;28;20041;-79
2024/01/15 04:45:13;;;;;;;84.30;53.90;;;;;;;2.17;100.00;98446.56;5040668;28;20559;-77
2024/01/15 04:47:39;;;;;;;80.60;53.42;;;;;;;2.14;100.00;98441.56;5044202;28;20048;-79
2024/01/15 04:50:05;;;;;;;81.85;52.80;;;;;;;2.17;100.00;98446.56;5042912;28;20425;-79
2024/01/15 04:52:30;;;;;;;81.18;52.13;;;;;;;2.24;100.00;98455.56;5046337;28;20020;-79
2024/01/15 04:54:56;;;;;;;79.32;53.17;;;;;;;2.27;100.00;98447.50;5046583;28;20025;-79
2024/01/15 04:57:21;;;;;;;77.88;52.22;;;;;;;2.31;100.00;98448.91;5053679;28;20031;-78
2024/01/15 04:59:47;;;;;;;80.25;52.40;;;;;;;2.34;100.00;98448.69;5047184;28;20086;-79
2024/01/15 05:02:13;;;;;;;80.78;53.28;;;;;;;2.36;100.00;98449.38;5050424;28;20127;-78
2024/01/15 05:04:39;;;;;;;76.93;51.00;;;;;;;2.37;100.00;98448.44;5045714;28;20033;-77
2024/01/15 05:07:05;;;;;;;80.00;50.83;;;;;;;2.37;100.00;98438.84;5049122;28;20104;-78
2024/01/15 05:09:30;;;;;;;81.50;52.60;;;;;;;2.38;100.00;98431.88;5047237;28;20436;-79
2024/01/15 05:11:57;;;;;;;80.32;52.58;;;;;;;2.39;100.00;98436.16;5050767;28;20104;-79
2024/01/15 05:14:23;;;;;;;77.00;50.70;;;;;;;2.35;100.00;98439.94;5046215;28;20087;-81
2024/01/15 05:16:49;;;;;;;76.13;51.80;;;;;;;2.33;100.00;98434.00;5045854;28;20065;-80
2024/01/15 05:19:15;;;;;;;80.90;52.17;;;;;;;2.34;100.00;98439.09;5045824;28;20049;-81
2024/01/15 05:21:40;;;;;;;79.65;52.08;;;;;;;2.35;100.00;98442.53;5047571;28;20102;-79
2024/01/15 05:24:07;;;;;;;82.70;51.65;;;;;;;2.32;100.00;98440.16;5047440;28;20083;-79
2024/01/15 05:26:33;;;;;;;78.03;50.72;;;;;;;2.30;100.00;98448.06;5049025;28;20426;-80
2024/01/15 05:28:59;;;;;;;79.72;50.60;;;;;;;2.25;100.00;98438.97;5047107;28;20067;-79
2024/01/15 05:31:25;;;;;;;75.40;50.10;;;;;;;2.31;100.00;98430.69;5049917;28;20028;-80
2024/01/15 05:33:50;;;;;;;78.45;50.88;;;;;;;2.36;100.00;98415.53;5049849;28;20044;-80
2024/01/15 05:36:16;;;;;;;77.80;49.83;;;;;;;2.34;100.00;98410.47;5048799;28;20025;-79
2024/01/15 05:38:41;;;;;;;82.05;51.63;;;;;;;2.29;100.00;98424.78;5045891;28;20021;-78
2024/01/15 05:41:07;;;;;;;76.57;50.45;;;;;;;2.22;100.00;98421.00;5048668;28;20032;-78
2024/01/15 05:43:33;;;;;;;74.93;49.97;;;;;;;2.17;100.00;98417.94;5045452;28;20033;-79
2024/01/15 05:46:00;;;;;;;75.25;50.72;;;;;;;2.09;100.00;98421.09;5049576;28;20132;-79
2024/01/15 05:48:25;;;;;;;77.25;51.10;;;;;;;2.13;100.00;98419.09;5046441;28;20025;-80
2024/01/15 05:50:51;;;;;;;77.80;51.00;;;;;;;2.18;100.00;98422.19;5051293;28;20367;-79
2024/01/15 05:53:16;;;;;;;73.78;50.10;;;;;;;2.21;100.00;98406.31;5047351;28;20040;-79
2024/01/15 05:55:42;;;;;;;76.60;51.30;;;;;;;2.03;100.00;98404.19;5048864;28;20064;-80
2024/01/15 05:58:07;;;;;;;75.88;50.95;;;;;;;1.82;100.00;98416.25;5043117;28;20033;-81
2024/01/15 06:00:35;;;;;;;81.05;50.78;;;;;;;1.90;100.00;98416.47;5049131;28;20060;-81
2024/01/15 06:03:01;;;;;;;79.43;51.38;;;;;;;1.99;100.00;98423.59;5050612;28;20071;-82
2024/01/15 06:05:27;;;;;;;73.70;49.47;;;;;;;2.09;100.00;98422.88;5051660;28;20112;-80
2024/01/15 06:07:52;;;;;;;76.75;51.90;;;;;;;2.16;100.00;98429.28;5050617;28;20025;-82
2024/01/15 06:10:18;;;;;;;79.85;50.28;;;;;;;2.14;100.00;98420.75;5056260;28;20511;-82
2024/01/15 06:12:44;;;;;;;80.00;51.75;;;;;;;2.20;100.00;98430.69;5047996;28;20056;-82
2024/01/15 06:15:10;;;;;;;75.38;48.50;;;;;;;1.94;100.00;98430.94;5044759;28;20424;-80
2024/01/15 06:17:35;;;;;;;72.43;48.40;;;;;;;2.05;100.00;98427.50;5050914;28;20473;-81
2024/01/15 06:20:01;;;;;;;75.75;51.08;;;;;;;2.11;100.00;98421.00;5051470;28;20089;-78
2024/01/15 06:22:27;;;;;;;73.95;49.15;;;;;;;1.90;100.00;98408.66;5047227;28;20025;-79
2024/01/15 06:24:53;;;;;;;73.18;49.25;;;;;;;1.94;100.00;98399.72;5047510;28;20438;-81
2024/01/15 06:27:19;;;;;;;73.93;47.00;;;;;;;1.78;100.00;98394.00;5049140;28;20385;-82
2024/01/15 06:29:48;;;;;;;73.97;48.15;;;;;;;1.87;100.00;98393.31;5049548;28;20037;-81
2024/01/15 06:32:14;;;;;;;74.07;48.58;;;;;;;1.83;100.00;98401.44;5048618;28;20041;-81
2024/01/15 06:34:40;;;;;;;72.85;47.88;;;;;;;1.78;100.00;98394.00;5052281;28;20043;-79
2024/01/15 06:37:06;;;;;;;73.57;48.42;;;;;;;1.71;100.00;98392.00;5054655;28;20033;-81
2024/01/15 06:39:32;;;;;;;74.25;48.03;;;;;;;1.69;100.00;98384.28;5048238;28;20037;-82
2024/01/15 06:41:57;;;;;;;74.30;48.38;;;;;;;1.53;100.00;98381.19;5055001;28;20044;-82
2024/01/15 06:44:23;;;;;;;75.32;48.22;;;;;;;1.53;100.00;98392.41;5049306;28;20091;-82
2024/01/15 06:46:51;;;;;;;71.18;46.72;;;;;;;1.58;100.00;98394.69;5053144;28;20045;-80
2024/01/15 06:49:17;;;;;;;72.82;47.47;;;;;;;1.64;100.00;98391.63;5051929;28;20104;-82
2024/01/15 06:51:42;;;;;;;75.82;49.00;;;;;;;1.69;100.00;98397.28;5053820;28;20056;-83
2024/01/15 06:54:08;;;;;;;72.93;49.85;;;;;;;1.71;100.00;98407.59;5047899;28;20033;-82
2024/01/15 06:56:34;;;;;;;73.55;48.97;;;;;;;1.60;100.00;98422.19;5068135;28;20028;-83
2024/01/15 06:58:59;;;;;;;74.03;50.42;;;;;;;1.59;100.00;98422.34;5053057;28;20030;-83
2024/01/15 07:01:26;;;;;;;73.00;49.65;;;;;;;1.59;100.00;98414.53;5053577;28;20033;-81
2024/01/15 07:03:52;;;;;;;76.53;49.03;;;;;;;1.61;100.00;98415.22;5045307;28;20040;-83
2024/01/15 07:06:17;;;;;;;74.93;49.20;;;;;;;1.60;100.00;98418.78;5048355;28;20033;-82
2024/01/15 07:08:43;;;;;;;79.28;50.45;;;;;;;1.67;100.00;98409.56;5050580;28;20563;-83
2024/01/15 07:11:09;;;;;;;75.50;49.33;;;;;;;1.75;100.00;98409.84;5049543;28;20043;-82
2024/01/15 07:13:36;;;;;;;79.53;51.38;;;;;;;1.80;100.00;98407.72;5052879;28;20121;-81
2024/01/15 07:16:02;;;;;;;71.50;47.08;;;;;;;1.82;100.00;98395.44;5050420;28;20025;-81
2024/01/15 07:18:28;;;;;;;74.97;49.05;;;;;;;1.76;100.00;98392.47;5055791;28;20033;-82
2024/01/15 07:20:54;;;;;;;75.82;48.03;;;;;;;1.81;100.00;98393.78;5049208;28;20067;-82
2024/01/15 07:23:20;;;;;;;72.88;48.42;;;;;;;1.89;100.00;98399.19;5055470;28;20033;-82
2024/01/15 07:25:46;;;;;;;74.43;48.17;;;;;;;1.79;100.00;98393.06;5058851;28;20021;-81
2024/01/15 07:28:12;;;;;;;72.05;49.30;;;;;;;1.86;100.00;98383.84;5065554;28;20567;-82
2024/01/15 07:30:38;;;;;;;79.15;49.90;;;;;;;1.98;100.00;98385.50;5061512;28;20034;-81
2024/01/15 07:33:04;;;;;;;73.35;47.70;;;;;;;2.08;100.00;98390.00;5061272;28;20033;-82
2024/01/15 07:35:30;;;;;;;71.82;47.65;;;;;;;2.13;100.00;98372.25;5059000;28;20098;-82
2024/01/15 07:37:56;;;;;;;73.45;47.58;;;;;;;2.16;100.00;98362.44;5063710;28;20028;-81
2024/01/15 07:40:21;;;;;;;77.00;49.55;;;;;;;2.22;100.00;98363.75;5058358;28;20446;-82
2024/01/15 07:42:47;;;;;;;76.57;48.97;;;;;;;2.17;100.00;98374.53;5061768;28;20052;-81
2024/01/15 07:45:14;;;;;;;76.93;48.20;;;;;;;2.24;100.00;98385.28;5060866;28;20033;-81
2024/01/15 07:47:41;;;;;;;69.88;46.13;;;;;;;2.21;100.00;98385.50;5061601;28;20040;-81
2024/01/15 07:50:07;;;;;;;74.28;47.92;;;;;;;2.21;100.00;98369.88;5062514;28;20042;-82
2024/01/15 07:52:32;;;;;;;74.95;48.45;;;;;;;2.24;100.00;98364.47;5066205;28;20060;-83
2024/01/15 07:54:59;;;;;;;75.93;47.33;;;;;;;2.32;100.00;98369.88;5070098;28;20132;-81
2024/01/15 07:57:26;;;;;;;70.03;47.35;;;;;;;2.37;100.00;98370.34;5065164;28;20055;-83
2024/01/15 07:59:51;;;;;;;69.70;48.47;;;;;;;2.36;100.00;98358.28;5051575;28;20037;-84
2024/01/15 08:02:17;;;;;;;67.43;45.90;;;;;;;2.37;100.00;98354.72;5043412;28;20049;-82
2024/01/15 08:04:42;;;;;;;70.53;46.70;;;;;;;2.42;100.00;98363.00;5051273;28;20064;-82
2024/01/15 08:07:08;;;;;;;74.80;47.63;;;;;;;2.41;100.00;98358.75;5045807;28;20038;-82
2024/01/15 08:09:34;;;;;;;66.50;44.63;;;;;;;2.47;100.00;98372.09;5047289;28;20384;-82
2024/01/15 08:12:00;;;;;;;71.40;47.95;;;;;;;2.53;100.00;98368.22;5044196;28;20033;-81
2024/01/15 08:14:26;;;;;;;68.68;46.17;;;;;;;2.52;100.00;98361.34;5039717;28;20124;-81
2024/01/15 08:16:51;;;;;;;67.78;44.83;;;;;;;2.59;100.00;98359.91;5050918;28;20157;-82
2024/01/15 08:19:17;;;;;;;69.32;45.05;;;;;;;2.59;100.00;98370.34;5055231;28;20107;-82
2024/01/15 08:21:43;;;;;;;67.57;44.80;;;;;;;2.62;100.00;98382.25;5045930;28;20025;-82
2024/01/15 08:24:09;;;;;;;66.88;44.67;;;;;;;2.48;100.00;98378.97;5042075;28;20040;-83
2024/01/15 08:26:34;;;;;;;68.60;43.58;;;;;;;2.44;100.00;98387.13;5042427;28;20195;-82
2024/01/15 08:29:00;;;;;;;69.70;44.60;;;;;;;2.61;100.00;98386.63;5041941;28;20048;-82
2024/01/15 08:31:26;;;;;;;66.72;45.45;;;;;;;2.69;100.00;98380.84;5045134;28;20025;-81
2024/01/15 08:33:51;;;;;;;70.35;46.75;;;;;;;2.74;100.00;98376.91;5042351;28;20064;-82
2024/01/15 08:36:18;;;;;;;68.90;45.65;;;;;;;2.77;100.00;98374.03;5045884;28;20358;-83
2024/01/15 08:38:43;;;;;;;71.18;46.45;;;;;;;2.87;100.00;98374.16;5040693;28;20175;-81
2024/01/15 08:41:09;;;;;;;72.00;44.63;;;;;;;2.98;100.00;98365.47;5043617;28;20029;-82
2024/01/15 08:43:35;;;;;;;68.35;45.45;;;;;;;3.10;100.00;98365.31;5042503;28;20037;-82
2024/01/15 08:46:00;;;;;;;66.55;45.30;;;;;;;3.21;100.00;98356.59;5052230;28;20029;-82
2024/01/15 08:48:27;;;;;;;69.90;44.35;;;;;;;3.25;100.00;98358.00;5042514;28;20036;-83
2024/01/15 08:50:54;;;;;;;66.35;43.45;;;;;;;3.22;100.00;98353.88;5041820;28;20037;-84
2024/01/15 08:53:20;;;;;;;63.08;42.33;;;;;;;3.21;100.00;98348.78;5043072;28;20171;-82
2024/01/15 08:55:45;;;;;;;66.72;42.85;;;;;;;3.24;100.00;98362.38;5042463;28;20124;-82
2024/01/15 08:58:11;;;;;;;61.75;40.83;;;;;;;3.31;100.00;98352.28;5046278;28;20033;-82
2024/01/15 09:00:37;;;;;;;66.85;44.13;;;;;;;3.33;100.00;98353.00;5045768;28;20033;-82
2024/01/15 09:03:02;;;;;;;64.03;44.17;;;;;;;3.32;100.00;98359.16;5042166;28;20094;-81
2024/01/15 09:05:28;;;;;;;61.85;41.42;;;;;;;3.31;100.00;98354.88;5045860;28;20031;-81
2024/01/15 09:07:54;;;;;;;63.08;43.28;;;;;;;3.34;100.00;98357.25;5040237;28;20389;-82
2024/01/15 09:10:20;;;;;;;61.70;41.60;;;;;;;3.43;100.00;98360.88;5050118;28;20075;-82
2024/01/15 09:12:46;;;;;;;58.70;40.80;;;;;;;3.48;100.00;98372.56;5042330;28;20033;-82
2024/01/15 09:15:12;;;;;;;62.80;40.80;;;;;;;3.55;100.00;98367.66;5043241;28;20461;-82
2024/01/15 09:17:38;;;;;;;61.80;39.92;;;;;;;3.55;100.00;98376.31;5044096;28;20026;-82
2024/01/15 09:20:05;;;;;;;64.88;42.53;;;;;;;3.57;100.00;98379.66;5045271;28;20032;-81
2024/01/15 09:22:31;;;;;;;65.35;42.28;;;;;;;3.62;100.00;98387.91;5044609;28;20486;-83
2024/01/15 09:24:57;;;;;;;66.30;41.47;;;;;;;3.69;100.00;98377.78;5045796;28;20044;-81
2024/01/15 09:27:22;;;;;;;64.15;42.60;;;;;;;3.77;100.00;98371.94;5041166;28;20040;-84
2024/01/15 09:29:48;;;;;;;64.57;42.95;;;;;;;3.83;100.00;98361.00;5043029;28;20069;-82
2024/01/15 09:32:15;;;;;;;61.72;41.47;;;;;;;3.88;100.00;98356.22;5041478;28;20046;-82
2024/01/15 09:34:41;;;;;;;66.07;42.35;;;;;;;3.93;100.00;98354.84;5044911;28;20033;-83
2024/01/15 09:37:06;;;;;;;68.20;43.45;;;;;;;3.91;100.00;98361.16;5043521;28;20108;-82
2024/01/15 09:39:32;;;;;;;61.88;41.17;;;;;;;3.96;100.00;98364.19;5048161;28;20469;-81
2024/01/15 09:41:58;;;;;;;61.97;41.55;;;;;;;4.01;100.00;98377.69;5044818;28;20029;-82
2024/01/15 09:44:24;;;;;;;64.38;43.03;;;;;;;4.06;100.00;98381.53;5045323;28;20124;-83
2024/01/15 09:46:51;;;;;;;59.72;40.58;;;;;;;4.10;100.00;98372.53;5042955;28;20449;-82
2024/01/15 09:49:18;;;;;;;64.30;42.65;;;;;;;4.11;100.00;98371.56;5043558;28;20040;-82
2024/01/15 09:51:44;;;;;;;67.03;43.88;;;;;;;4.12;100.00;98380.22;5044399;28;20718;-82
2024/01/15 09:54:13;;;;;;;67.38;43.13;;;;;;;4.12;100.00;98367.16;5046092;28;20485;-82
2024/01/15 09:56:39;;;;;;;63.53;42.55;;;;;;;4.17;100.00;98362.38;5042283;28;20116;-82
2024/01/15 09:59:05;;;;;;;66.45;43.42;;;;;;;4.25;100.00;98348.66;5046301;28;20049;-81
2024/01/15 10:01:36;;;;;;;65.63;43.50;;;;;;;4.34;100.00;98358.31;5066846;22;20061;-74
2024/01/15 10:04:02;;;;;;;61.67;42.38;;;;;;;4.41;100.00;98355.03;5078437;28;20444;-75
2024/01/15 10:06:30;;;;;;;66.95;42.53;;;;;;;4.48;100.00;98335.25;5078595;28;20096;-74
2024/01/15 10:08:58;;;;;;;63.92;42.58;;;;;;;4.56;100.00;98334.56;5075930;28;20480;-75
2024/01/15 10:11:23;;;;;;;58.40;41.53;;;;;;;4.54;100.00;98332.09;5079973;28;20158;-75
2024/01/15 10:13:53;;;;;;;65.28;43.03;;;;;;;4.54;100.00;98324.25;5083319;28;20120;-75
2024/01/15 10:16:22;;;;;;;66.13;43.03;;;;;;;4.57;100.00;98327.56;5061537;28;20055;-74
2024/01/15 10:18:48;;;;;;;66.65;42.92;;;;;;;4.62;100.00;98314.94;5084625;28;20020;-75
2024/01/15 10:21:14;;;;;;;63.80;43.50;;;;;;;4.70;100.00;98299.41;5076758;28;20124;-75
2024/01/15 10:23:39;;;;;;;61.95;42.72;;;;;;;4.68;100.00;98288.25;5078598;28;20033;-75
2024/01/15 10:26:05;;;;;;;66.95;43.78;;;;;;;4.72;100.00;98281.78;5077971;28;20453;-75
2024/01/15 10:28:31;;;;;;;62.88;43.47;;;;;;;4.81;100.00;98278.38;5075549;28;20028;-75
2024/01/15 10:31:01;;;;;;;62.22;40.97;;;;;;;4.84;100.00;98273.66;5082460;28;20528;-74
2024/01/15 10:33:27;;;;;;;64.07;42.50;;;;;;;4.89;100.00;98270.63;5071313;28;20078;-74
2024/01/15 10:35:57;;;;;;;63.53;41.13;;;;;;;4.89;100.00;98275.88;5082395;28;20504;-72
2024/01/15 10:38:23;;;;;;;;;;;;;;;4.88;100.00;98284.69;5075222;28;20137;-74
2024/01/15 10:40:53;;;;;;;62.85;41.65;;;;;;;4.95;100.00;98280.53;5074722;28;19924;-75
2024/01/15 10:43:20;;;;;;;66.45;42.25;;;;;;;4.98;100.00;98275.06;5072897;28;20044;-75
2024/01/15 10:45:50;;;;;;;62.17;41.22;;;;;;;5.03;100.00;98277.25;5073484;28;20472;-74
2024/01/15 10:48:19;;;;;;;64.32;42.30;;;;;;;5.09;100.00;98263.63;5075501;28;20435;-72
2024/01/15 10:50:45;;;;;;;63.03;41.83;;;;;;;5.14;100.00;98251.78;5079192;28;20029;-74
2024/01/15 10:53:15;;;;;;;61.67;40.92;;;;;;;5.14;100.00;98249.16;5063984;28;20115;-74
2024/01/15 10:55:42;;;;;;;64.75;41.60;;;;;;;5.20;100.00;98232.91;5075853;28;20119;-74
2024/01/15 10:58:08;;;;;;;65.68;41.95;;;;;;;5.23;100.00;98222.19;5072121;28;20060;-74
2024/01/15 11:00:37;;;;;;;59.97;40.00;;;;;;;5.27;100.00;98202.59;5077039;28;20100;-73
2024/01/15 11:03:08;;;;;;;61.75;40.05;;;;;;;5.32;100.00;98213.47;5082125;28;20070;-73
2024/01/15 11:05:42;;;;;;;56.95;38.05;;;;;;;5.36;100.00;98222.66;5082764;28;20029;-73
2024/01/15 11:08:09;;;;;;;57.58;38.72;;;;;;;5.42;100.00;98225.72;5081114;28;20067;-74
2024/01/15 11:10:46;;;;;;;60.90;38.67;;;;;;;5.46;100.00;98229.69;5080723;28;20436;-74